createdAt,value
2023-02-19T00:01:13.425Z,53.80
2023-02-19T00:03:41.220Z,50.67
2023-02-19T00:06:10.437Z,51.50
2023-02-19T00:08:38.922Z,53.00
2023-02-19T00:11:12.710Z,51.20
2023-02-19T00:13:45.227Z,50.75
2023-02-19T00:16:30.834Z,49.75
2023-02-19T00:18:58.494Z,53.42
2023-02-19T00:21:26.247Z,57.83
2023-02-19T00:23:58.315Z,51.20
2023-02-19T00:26:25.353Z,49.22
2023-02-19T00:28:53.572Z,47.70
2023-02-19T00:31:33.240Z,50.40
2023-02-19T00:34:03.877Z,52.05
2023-02-19T00:36:32.116Z,48.20
2023-02-19T00:38:58.915Z,54.92
2023-02-19T00:41:25.886Z,54.00
2023-02-19T00:44:05.214Z,55.08
2023-02-19T00:46:40.014Z,56.75
2023-02-19T00:49:08.149Z,52.88
2023-02-19T00:51:38.046Z,55.38
2023-02-19T00:56:32.482Z,54.13
2023-02-19T00:58:59.304Z,51.80
2023-02-19T01:01:26.084Z,53.75
2023-02-19T01:03:53.056Z,52.53
2023-02-19T01:06:21.194Z,50.05
2023-02-19T01:08:48.486Z,51.13
2023-02-19T01:11:16.669Z,52.80
2023-02-19T01:13:43.897Z,53.80
2023-02-19T01:16:21.167Z,59.10
2023-02-19T01:18:48.931Z,54.80
2023-02-19T01:21:23.270Z,55.20
2023-02-19T01:23:51.048Z,54.97
2023-02-19T01:26:20.849Z,49.20
2023-02-19T01:28:48.538Z,51.03
2023-02-19T01:31:19.265Z,54.13
2023-02-19T01:33:47.937Z,48.58
2023-02-19T01:36:15.221Z,51.08
2023-02-19T01:38:42.803Z,48.53
2023-02-19T01:41:14.206Z,49.30
2023-02-19T01:44:12.811Z,50.92
2023-02-19T01:46:41.941Z,48.42
2023-02-19T01:49:11.855Z,46.77
2023-02-19T01:51:43.789Z,44.00
2023-02-19T01:54:13.640Z,46.95
2023-02-19T01:56:43.777Z,45.75
2023-02-19T01:59:10.864Z,44.92
2023-02-19T02:01:39.680Z,47.25
2023-02-19T02:04:11.075Z,46.55
2023-02-19T02:06:56.490Z,53.03
2023-02-19T02:09:46.097Z,50.13
2023-02-19T02:12:13.075Z,50.83
2023-02-19T02:14:43.955Z,49.17
2023-02-19T02:17:31.507Z,48.92
2023-02-19T02:20:36.814Z,48.35
2023-02-19T02:23:27.760Z,47.22
2023-02-19T02:26:12.889Z,47.78
2023-02-19T02:28:59.074Z,48.45
2023-02-19T02:31:30.786Z,43.60
2023-02-19T02:34:33.057Z,49.80
2023-02-19T02:37:00.578Z,47.67
2023-02-19T02:39:29.508Z,51.72
2023-02-19T02:42:18.136Z,45.13
2023-02-19T02:45:12.862Z,47.15
2023-02-19T02:47:55.336Z,49.72
2023-02-19T02:50:24.975Z,44.63
2023-02-19T02:53:16.859Z,50.30
2023-02-19T02:55:48.681Z,41.45
2023-02-19T02:58:17.027Z,41.97
2023-02-19T03:01:09.144Z,40.83
2023-02-19T03:03:40.156Z,39.88
2023-02-19T03:06:11.898Z,43.95
2023-02-19T03:08:56.821Z,40.70
2023-02-19T03:11:42.309Z,37.88
2023-02-19T03:14:39.566Z,40.72
2023-02-19T03:17:39.166Z,38.20
2023-02-19T03:20:12.452Z,34.97
2023-02-19T03:22:42.434Z,37.25
2023-02-19T03:25:32.439Z,36.97
2023-02-19T03:28:04.035Z,39.47
2023-02-19T03:30:35.933Z,42.67
2023-02-19T03:33:14.417Z,39.50
2023-02-19T03:35:56.070Z,39.90
2023-02-19T03:38:31.923Z,35.58
2023-02-19T03:41:15.086Z,38.33
2023-02-19T03:43:50.902Z,37.58
2023-02-19T03:46:41.496Z,36.97
2023-02-19T03:49:14.313Z,39.38
2023-02-19T03:51:45.671Z,33.42
2023-02-19T03:54:18.749Z,38.67
2023-02-19T03:57:09.728Z,40.95
2023-02-19T03:59:55.344Z,40.92
2023-02-19T04:02:33.070Z,38.78
2023-02-19T04:05:14.145Z,39.85
2023-02-19T04:10:11.538Z,37.07
2023-02-19T04:12:53.185Z,35.83
2023-02-19T04:15:25.478Z,39.85
2023-02-19T04:18:04.613Z,35.22
2023-02-19T04:20:38.582Z,39.47
2023-02-19T04:23:05.854Z,39.78
2023-02-19T04:25:34.657Z,36.13
2023-02-19T04:28:02.756Z,35.10
2023-02-19T04:30:29.809Z,36.92
2023-02-19T04:32:56.695Z,37.47
2023-02-19T04:35:23.469Z,38.03
2023-02-19T04:37:50.270Z,37.58
2023-02-19T04:40:17.374Z,33.83
2023-02-19T04:42:44.082Z,35.53
2023-02-19T04:45:10.831Z,37.42
2023-02-19T04:47:37.576Z,36.30
2023-02-19T04:50:04.772Z,41.40
2023-02-19T04:52:31.597Z,37.45
2023-02-19T04:54:58.357Z,38.15
2023-02-19T04:57:25.169Z,37.25
2023-02-19T04:59:52.483Z,39.30
2023-02-19T05:02:19.302Z,36.92
2023-02-19T05:04:46.088Z,40.03
2023-02-19T05:07:13.045Z,38.17
2023-02-19T05:09:39.858Z,37.83
2023-02-19T05:12:06.905Z,37.13
2023-02-19T05:14:33.686Z,36.85
2023-02-19T05:17:00.456Z,36.38
2023-02-19T05:19:27.304Z,37.20
2023-02-19T05:21:54.362Z,34.33
2023-02-19T05:24:21.166Z,34.78
2023-02-19T05:26:48.695Z,36.67
2023-02-19T05:29:15.491Z,36.22
2023-02-19T05:31:42.537Z,36.63
2023-02-19T05:34:09.787Z,37.72
2023-02-19T05:36:37.363Z,36.25
2023-02-19T05:39:06.285Z,36.72
2023-02-19T05:41:33.496Z,39.17
2023-02-19T05:44:00.375Z,35.28
2023-02-19T05:46:29.928Z,36.75
2023-02-19T05:48:58.333Z,34.55
2023-02-19T05:51:27.015Z,36.47
2023-02-19T05:53:54.223Z,37.83
2023-02-19T05:56:34.716Z,41.22
2023-02-19T05:59:20.040Z,42.83
2023-02-19T06:01:48.228Z,40.20
2023-02-19T06:04:15.820Z,48.40
2023-02-19T06:06:43.468Z,53.75
2023-02-19T06:09:11.164Z,46.58
2023-02-19T06:11:38.646Z,50.03
2023-02-19T06:14:06.214Z,47.90
2023-02-19T06:16:34.051Z,48.05
2023-02-19T06:19:04.379Z,47.10
2023-02-19T06:21:31.274Z,42.10
2023-02-19T06:23:57.991Z,35.58
2023-02-19T06:26:25.623Z,40.67
2023-02-19T06:28:53.505Z,41.65
2023-02-19T06:31:22.287Z,39.47
2023-02-19T06:33:50.859Z,40.90
2023-02-19T06:36:20.363Z,38.85
2023-02-19T06:38:48.544Z,40.28
2023-02-19T06:41:15.550Z,49.30
2023-02-19T06:43:42.426Z,53.50
2023-02-19T06:46:10.871Z,44.50
2023-02-19T06:48:39.766Z,43.05
2023-02-19T06:51:06.718Z,41.30
2023-02-19T06:53:33.405Z,47.85
2023-02-19T06:56:03.088Z,44.63
2023-02-19T06:58:30.223Z,42.70
2023-02-19T07:00:57.053Z,42.97
2023-02-19T07:03:24.279Z,46.72
2023-02-19T07:05:51.029Z,48.17
2023-02-19T07:08:18.191Z,47.13
2023-02-19T07:10:45.811Z,46.65
2023-02-19T07:13:12.651Z,45.90
2023-02-19T07:15:39.442Z,46.42
2023-02-19T07:18:10.302Z,46.45
2023-02-19T07:20:37.462Z,48.13
2023-02-19T07:23:04.503Z,51.55
2023-02-19T07:25:31.787Z,47.03
2023-02-19T07:27:58.541Z,44.38
2023-02-19T07:30:25.371Z,53.45
2023-02-19T07:32:52.088Z,50.90
2023-02-19T07:35:18.925Z,54.78
2023-02-19T07:37:45.630Z,64.82
2023-02-19T07:40:12.414Z,69.45
2023-02-19T07:42:39.198Z,67.25
2023-02-19T07:45:06.585Z,67.40
2023-02-19T07:47:33.272Z,58.92
2023-02-19T07:50:00.032Z,55.47
2023-02-19T07:52:26.842Z,55.92
2023-02-19T07:54:53.624Z,55.38
2023-02-19T07:57:20.455Z,51.88
2023-02-19T07:59:47.214Z,52.95
2023-02-19T08:02:37.465Z,49.00
2023-02-19T08:05:05.632Z,54.67
2023-02-19T08:07:33.605Z,61.75
2023-02-19T08:10:19.202Z,57.95
2023-02-19T08:13:04.473Z,53.25
2023-02-19T08:15:33.018Z,59.17
2023-02-19T08:17:59.683Z,49.80
2023-02-19T08:20:26.606Z,50.63
2023-02-19T08:22:53.363Z,47.53
2023-02-19T08:25:20.211Z,47.85
2023-02-19T08:27:46.908Z,65.00
2023-02-19T08:30:13.706Z,65.70
2023-02-19T08:32:40.498Z,60.30
2023-02-19T08:35:07.504Z,60.60
2023-02-19T08:37:34.219Z,62.92
2023-02-19T08:40:01.072Z,54.65
2023-02-19T08:42:29.281Z,59.80
2023-02-19T08:44:56.522Z,54.08
2023-02-19T08:47:23.269Z,58.78
2023-02-19T08:49:50.042Z,61.97
2023-02-19T08:52:16.732Z,65.85
2023-02-19T08:54:43.427Z,65.70
2023-02-19T08:57:10.251Z,64.30
2023-02-19T08:59:37.017Z,58.58
2023-02-19T09:02:04.001Z,55.42
2023-02-19T09:04:30.856Z,50.47
2023-02-19T09:06:57.636Z,51.25
2023-02-19T09:09:24.375Z,56.45
2023-02-19T09:11:51.082Z,49.70
2023-02-19T09:14:17.893Z,53.97
2023-02-19T09:16:44.672Z,50.03
2023-02-19T09:19:11.426Z,51.88
2023-02-19T09:21:38.127Z,53.47
2023-02-19T09:24:05.062Z,52.60
2023-02-19T09:26:31.735Z,55.22
2023-02-19T09:28:58.650Z,53.88
2023-02-19T09:31:25.429Z,59.28
2023-02-19T09:33:52.193Z,50.15
2023-02-19T09:36:18.984Z,48.30
2023-02-19T09:38:45.837Z,45.47
2023-02-19T09:41:22.679Z,46.47
2023-02-19T09:43:49.846Z,48.58
2023-02-19T09:46:29.390Z,48.45
2023-02-19T09:49:04.357Z,42.83
2023-02-19T09:51:34.410Z,47.97
2023-02-19T09:56:29.644Z,44.20
2023-02-19T09:58:58.570Z,47.17
2023-02-19T10:01:30.739Z,43.53
2023-02-19T10:03:57.906Z,48.58
2023-02-19T10:06:29.311Z,49.67
2023-02-19T10:09:26.784Z,45.25
2023-02-19T10:11:58.936Z,47.30
2023-02-19T10:14:36.452Z,45.05
2023-02-19T10:17:06.207Z,47.47
2023-02-19T10:19:34.619Z,49.25
2023-02-19T10:22:03.365Z,48.17
2023-02-19T10:24:31.094Z,46.38
2023-02-19T10:26:57.815Z,51.63
2023-02-19T10:29:25.005Z,46.75
2023-02-19T10:32:18.288Z,43.53
2023-02-19T10:34:45.404Z,43.17
2023-02-19T10:37:18.194Z,44.53
2023-02-19T10:39:49.734Z,43.83
2023-02-19T10:42:19.808Z,45.13
2023-02-19T10:47:23.305Z,42.38
2023-02-19T10:49:52.458Z,39.15
2023-02-19T10:52:27.194Z,41.77
2023-02-19T10:55:38.488Z,39.35
2023-02-19T10:58:29.061Z,40.05
2023-02-19T11:01:19.505Z,39.80
2023-02-19T11:04:06.854Z,38.42
2023-02-19T11:06:35.078Z,39.15
2023-02-19T11:09:02.128Z,34.20
2023-02-19T11:11:38.838Z,32.63
2023-02-19T11:14:27.008Z,32.58
2023-02-19T11:16:57.237Z,33.13
2023-02-19T11:19:42.627Z,27.45
2023-02-19T11:22:30.858Z,27.08
2023-02-19T11:25:06.712Z,26.38
2023-02-19T11:27:34.145Z,29.38
2023-02-19T11:30:42.744Z,30.40
2023-02-19T11:33:24.712Z,27.02
2023-02-19T11:35:58.049Z,26.30
2023-02-19T11:38:24.852Z,24.80
2023-02-19T11:40:57.552Z,19.98
2023-02-19T11:43:30.504Z,19.98
2023-02-19T11:46:12.367Z,20.73
2023-02-19T11:48:54.785Z,19.23
2023-02-19T11:51:41.471Z,21.15
2023-02-19T11:54:51.112Z,19.02
2023-02-19T11:57:38.455Z,23.05
2023-02-19T12:00:27.135Z,19.15
2023-02-19T12:03:09.984Z,19.73
2023-02-19T12:05:56.092Z,18.95
2023-02-19T12:08:32.432Z,19.05
2023-02-19T12:11:16.352Z,20.33
2023-02-19T12:14:01.050Z,20.90
2023-02-19T12:16:47.074Z,19.95
2023-02-19T12:19:19.803Z,18.52
2023-02-19T12:22:11.392Z,19.52
2023-02-19T12:24:51.756Z,19.17
2023-02-19T12:27:44.652Z,22.98
2023-02-19T12:30:42.567Z,22.08
2023-02-19T12:33:40.459Z,21.02
2023-02-19T12:36:42.088Z,20.90
2023-02-19T12:39:27.130Z,19.80
2023-02-19T12:42:18.138Z,20.13
2023-02-19T12:44:54.528Z,19.00
2023-02-19T12:47:33.086Z,20.35
2023-02-19T12:50:13.572Z,18.00
2023-02-19T12:52:45.478Z,22.45
2023-02-19T12:55:25.863Z,20.33
2023-02-19T12:57:55.413Z,19.48
2023-02-19T13:00:33.652Z,22.70
2023-02-19T13:03:04.153Z,19.65
2023-02-19T13:05:44.767Z,19.83
2023-02-19T13:09:06.253Z,21.52
2023-02-19T13:11:50.910Z,42.85
2023-02-19T13:14:27.019Z,22.58
2023-02-19T13:17:00.541Z,19.52
2023-02-19T13:19:27.350Z,22.33
2023-02-19T13:22:35.998Z,17.45
2023-02-19T13:25:05.242Z,20.60
2023-02-19T13:30:53.639Z,21.23
2023-02-19T13:33:46.285Z,19.08
2023-02-19T13:36:18.983Z,19.55
2023-02-19T13:38:48.833Z,18.95
2023-02-19T13:41:40.804Z,19.67
2023-02-19T13:44:17.970Z,19.83
2023-02-19T13:46:47.167Z,19.38
2023-02-19T13:49:23.049Z,20.30
2023-02-19T13:51:57.513Z,19.02
2023-02-19T13:54:39.961Z,21.77
2023-02-19T13:57:23.019Z,22.13
2023-02-19T13:59:55.342Z,20.77
2023-02-19T14:02:26.684Z,21.08
2023-02-19T14:05:44.469Z,22.83
2023-02-19T14:08:11.288Z,25.05
2023-02-19T14:10:47.178Z,23.73
2023-02-19T14:13:52.153Z,24.17
2023-02-19T14:16:30.950Z,49.42
2023-02-19T14:18:57.814Z,51.40
2023-02-19T14:21:26.174Z,40.25
2023-02-19T14:24:00.224Z,35.25
2023-02-19T14:26:28.036Z,20.27
2023-02-19T14:28:55.042Z,12.85
2023-02-19T14:31:30.717Z,12.13
2023-02-19T14:34:25.119Z,10.70
2023-02-19T14:37:01.301Z,10.10
2023-02-19T14:39:33.133Z,12.70
2023-02-19T14:42:08.298Z,10.52
2023-02-19T14:44:47.437Z,10.13
2023-02-19T14:47:18.574Z,11.77
2023-02-19T14:50:15.323Z,12.48
2023-02-19T14:52:49.495Z,11.68
2023-02-19T14:55:23.717Z,10.90
2023-02-19T14:57:53.928Z,10.68
2023-02-19T15:00:26.388Z,11.88
2023-02-19T15:02:58.625Z,9.70
2023-02-19T15:05:29.593Z,8.95
2023-02-19T15:08:00.678Z,9.32
2023-02-19T15:10:30.774Z,9.98
2023-02-19T15:13:01.551Z,8.63
2023-02-19T15:15:32.674Z,8.38
2023-02-19T15:18:01.513Z,10.45
2023-02-19T15:20:32.584Z,9.20
2023-02-19T15:23:01.621Z,9.20
2023-02-19T15:25:39.512Z,10.85
2023-02-19T15:28:29.649Z,14.18
2023-02-19T15:31:00.482Z,31.05
2023-02-19T15:33:28.136Z,11.40
2023-02-19T15:35:58.150Z,18.67
2023-02-19T15:38:25.984Z,11.25
2023-02-19T15:40:53.558Z,13.45
2023-02-19T15:43:25.488Z,14.82
2023-02-19T15:45:56.835Z,23.35
2023-02-19T15:48:29.753Z,26.75
2023-02-19T15:51:08.196Z,14.95
2023-02-19T15:53:40.398Z,20.92
2023-02-19T15:56:30.903Z,19.25
2023-02-19T15:59:01.147Z,14.25
2023-02-19T16:01:35.381Z,11.95
2023-02-19T16:04:03.102Z,16.00
2023-02-19T16:06:30.571Z,9.60
2023-02-19T16:09:05.820Z,9.90
2023-02-19T16:11:37.275Z,14.15
2023-02-19T16:14:22.443Z,14.68
2023-02-19T16:16:55.494Z,5.20
2023-02-19T16:19:28.163Z,5.13
2023-02-19T16:21:55.997Z,5.63
2023-02-19T16:24:36.394Z,7.07
2023-02-19T16:27:04.611Z,8.07
2023-02-19T16:29:33.157Z,4.93
2023-02-19T16:32:05.978Z,3.55
2023-02-19T16:34:52.089Z,3.88
2023-02-19T16:37:56.056Z,3.40
2023-02-19T16:40:35.324Z,4.28
2023-02-19T16:43:05.305Z,3.63
2023-02-19T16:47:58.920Z,2.80
2023-02-19T16:50:26.995Z,1.98
2023-02-19T16:52:56.439Z,3.03
2023-02-19T16:55:24.117Z,3.53
2023-02-19T16:57:50.988Z,2.83
2023-02-19T17:00:20.759Z,2.50
2023-02-19T17:02:49.324Z,1.70
2023-02-19T17:05:16.926Z,1.88
2023-02-19T17:07:43.939Z,1.02
2023-02-19T17:10:15.885Z,2.05
2023-02-19T17:12:42.733Z,1.92
2023-02-19T17:15:09.725Z,0.77
2023-02-19T17:17:36.523Z,1.40
2023-02-19T17:20:12.674Z,1.58
2023-02-19T17:22:39.563Z,1.85
2023-02-19T17:25:06.459Z,1.52
2023-02-19T17:27:33.198Z,1.05
2023-02-19T17:30:00.006Z,1.30
2023-02-19T17:32:26.984Z,1.27
2023-02-19T17:34:53.696Z,0.77
2023-02-19T17:37:20.417Z,3.58
2023-02-19T17:39:47.139Z,0.90
2023-02-19T17:42:13.866Z,0.73
2023-02-19T17:44:40.578Z,1.45
2023-02-19T17:47:07.424Z,0.60
2023-02-19T17:49:34.251Z,1.10
2023-02-19T17:52:00.949Z,0.60
2023-02-19T17:54:27.762Z,4.50
2023-02-19T17:56:54.451Z,3.45
2023-02-19T17:59:21.308Z,3.63
2023-02-19T18:01:48.079Z,3.17
2023-02-19T18:04:14.906Z,2.33
2023-02-19T18:06:42.887Z,1.58
2023-02-19T18:09:11.469Z,2.88
2023-02-19T18:11:38.186Z,1.67
2023-02-19T18:14:05.277Z,2.38
2023-02-19T18:16:32.012Z,2.03
2023-02-19T18:19:01.499Z,1.52
2023-02-19T18:21:28.216Z,1.00
2023-02-19T18:23:54.916Z,0.80
2023-02-19T18:26:21.610Z,0.50
2023-02-19T18:28:48.392Z,0.93
2023-02-19T18:31:15.634Z,0.50
2023-02-19T18:33:42.736Z,1.95
2023-02-19T18:36:11.469Z,0.85
2023-02-19T18:38:38.553Z,1.20
2023-02-19T18:41:05.514Z,0.70
2023-02-19T18:43:32.271Z,2.47
2023-02-19T18:45:59.027Z,1.52
2023-02-19T18:48:25.739Z,0.65
2023-02-19T18:50:52.512Z,0.93
2023-02-19T18:53:19.427Z,0.70
2023-02-19T18:55:46.248Z,1.58
2023-02-19T18:58:13.176Z,2.17
2023-02-19T19:00:39.890Z,0.63
2023-02-19T19:03:06.804Z,1.23
2023-02-19T19:05:33.765Z,1.08
2023-02-19T19:08:01.875Z,0.95
2023-02-19T19:10:29.059Z,0.50
2023-02-19T19:12:56.028Z,1.75
2023-02-19T19:15:23.374Z,0.45
2023-02-19T19:17:50.180Z,2.28
2023-02-19T19:20:19.604Z,0.30
2023-02-19T19:22:49.614Z,0.55
2023-02-19T19:27:43.023Z,0.35
2023-02-19T19:30:10.090Z,0.98
2023-02-19T19:32:37.778Z,0.30
2023-02-19T19:35:05.160Z,1.33
2023-02-19T19:37:31.954Z,0.20
2023-02-19T19:39:58.736Z,0.75
2023-02-19T19:42:25.591Z,0.50
2023-02-19T19:44:52.376Z,1.48
2023-02-19T19:47:19.279Z,0.40
2023-02-19T19:49:47.337Z,0.98
2023-02-19T19:52:14.905Z,1.42
2023-02-19T19:54:44.733Z,2.03
2023-02-19T19:57:11.770Z,0.88
2023-02-19T19:59:39.530Z,2.50
2023-02-19T20:02:07.239Z,2.00
2023-02-19T20:04:34.067Z,0.43
2023-02-19T20:07:00.924Z,0.40
2023-02-19T20:09:29.166Z,0.30
2023-02-19T20:11:56.267Z,0.77
2023-02-19T20:14:24.575Z,0.82
2023-02-19T20:16:51.459Z,1.17
2023-02-19T20:19:20.111Z,0.38
2023-02-19T20:21:48.543Z,0.35
2023-02-19T20:24:24.952Z,1.45
2023-02-19T20:26:58.484Z,0.20
2023-02-19T20:29:33.756Z,0.28
2023-02-19T20:32:02.595Z,2.33
2023-02-19T20:34:30.412Z,0.32
2023-02-19T20:36:57.605Z,0.20
2023-02-19T20:39:28.741Z,0.35
2023-02-19T20:41:57.395Z,0.40
2023-02-19T20:44:25.807Z,0.30
2023-02-19T20:46:53.455Z,0.30
2023-02-19T20:49:23.077Z,0.90
2023-02-19T20:52:03.577Z,0.35
2023-02-19T20:54:32.469Z,0.75
2023-02-19T20:57:02.312Z,0.20
2023-02-19T20:59:34.928Z,0.30
2023-02-19T21:02:04.244Z,1.08
2023-02-19T21:04:31.528Z,0.50
2023-02-19T21:06:58.534Z,0.20
2023-02-19T21:09:25.328Z,0.65
2023-02-19T21:11:53.092Z,0.20
2023-02-19T21:14:19.848Z,0.43
2023-02-19T21:16:46.769Z,0.25
2023-02-19T21:19:13.557Z,0.70
2023-02-19T21:21:40.489Z,1.45
2023-02-19T21:24:07.669Z,0.35
2023-02-19T21:26:36.481Z,0.57
2023-02-19T21:29:04.714Z,0.93
2023-02-19T21:31:43.579Z,0.30
2023-02-19T21:34:13.076Z,0.30
2023-02-19T21:36:40.468Z,0.17
2023-02-19T21:39:08.920Z,0.30
2023-02-19T21:41:36.031Z,0.20
2023-02-19T21:44:03.319Z,0.20
2023-02-19T21:46:30.087Z,0.40
2023-02-19T21:48:57.231Z,0.52
2023-02-19T21:51:33.662Z,2.10
2023-02-19T21:54:00.591Z,0.28
2023-02-19T21:56:29.966Z,0.40
2023-02-19T21:58:56.761Z,0.40
2023-02-19T22:01:29.154Z,1.42
2023-02-19T22:03:55.898Z,0.40
2023-02-19T22:06:29.073Z,0.30
2023-02-19T22:08:56.167Z,0.50
2023-02-19T22:11:22.875Z,0.57
2023-02-19T22:13:49.972Z,0.60
2023-02-19T22:16:17.452Z,1.88
2023-02-19T22:18:52.557Z,0.50
2023-02-19T22:21:20.470Z,1.38
2023-02-19T22:23:48.823Z,0.60
2023-02-19T22:26:26.572Z,0.45
2023-02-19T22:28:53.479Z,0.55
2023-02-19T22:31:22.253Z,1.05
2023-02-19T22:33:49.348Z,1.30
2023-02-19T22:36:24.925Z,0.50
2023-02-19T22:38:52.535Z,0.95
2023-02-19T22:41:20.810Z,1.23
2023-02-19T22:43:47.953Z,1.15
2023-02-19T22:46:18.432Z,1.05
2023-02-19T22:48:45.586Z,0.90
2023-02-19T22:51:14.516Z,1.02
2023-02-19T22:53:51.296Z,1.10
2023-02-19T22:56:19.710Z,1.38
2023-02-19T22:58:46.699Z,0.95
2023-02-19T23:01:14.611Z,1.38
2023-02-19T23:03:58.882Z,2.75
2023-02-19T23:06:27.191Z,0.80
2023-02-19T23:08:55.410Z,1.33
2023-02-19T23:11:31.756Z,0.65
2023-02-19T23:13:59.358Z,0.98
2023-02-19T23:16:26.623Z,1.15
2023-02-19T23:18:54.131Z,1.02
2023-02-19T23:21:21.982Z,1.75
2023-02-19T23:23:48.955Z,1.00
2023-02-19T23:26:16.789Z,1.83
2023-02-19T23:28:44.549Z,1.65
2023-02-19T23:31:12.690Z,1.58
2023-02-19T23:33:40.159Z,2.22
2023-02-19T23:36:08.106Z,1.50
2023-02-19T23:38:34.924Z,1.15
2023-02-19T23:41:02.270Z,1.42
2023-02-19T23:43:29.407Z,2.95
2023-02-19T23:45:56.270Z,1.10
2023-02-19T23:48:23.309Z,1.15
2023-02-19T23:50:50.113Z,1.80
2023-02-19T23:53:17.065Z,2.28
2023-02-19T23:55:44.002Z,1.50
2023-02-19T23:58:10.846Z,2.75
